Time;durP1;ratioP1;P1;durP2;ratioP2;P2;SDS_P1;SDS_P2;PMS_P1;PMS_P2;Temp;Humidity;BMP_temperature;BMP_pressure;BME280_temperature;BME280_humidity;BME280_pressure;Samples;Min_cycle;Max_cycle;Signal;HPM_P1;HPM_P2
2022/05/16 00:02:04;;;;;;;10.27;5.78;;;16.30;99.90;;;;;;5014585;28;20113;-71
2022/05/16 00:04:30;;;;;;;11.40;5.93;;;16.30;99.90;;;;;;5015098;28;20032;-72
2022/05/16 00:06:56;;;;;;;12.55;5.22;;;16.30;99.90;;;;;;5015057;28;20026;-71
2022/05/16 00:09:22;;;;;;;18.50;5.20;;;16.30;99.90;;;;;;5014639;28;20076;-70
2022/05/16 00:11:48;;;;;;;10.35;4.68;;;16.20;99.90;;;;;;5006907;28;20038;-71
2022/05/16 00:14:14;;;;;;;9.13;4.70;;;16.20;99.90;;;;;;5014637;28;20026;-70
2022/05/16 00:16:40;;;;;;;13.35;4.40;;;16.20;99.90;;;;;;5014531;28;20026;-70
2022/05/16 00:19:06;;;;;;;13.73;5.07;;;16.20;99.90;;;;;;5015054;28;20022;-72
2022/05/16 00:21:34;;;;;;;8.07;4.50;;;16.10;99.90;;;;;;5014678;28;20026;-72
2022/05/16 00:24:00;;;;;;;12.93;4.47;;;16.10;99.90;;;;;;5014703;28;20092;-72
2022/05/16 00:26:26;;;;;;;7.93;4.25;;;16.00;99.90;;;;;;5014681;28;20464;-70
2022/05/16 00:28:52;;;;;;;14.43;5.25;;;16.00;99.90;;;;;;5014559;28;20387;-70
2022/05/16 00:31:18;;;;;;;11.77;4.72;;;16.00;99.90;;;;;;5014479;28;20404;-67
2022/05/16 00:33:44;;;;;;;14.18;4.95;;;16.00;99.90;;;;;;5014632;28;20026;-71
2022/05/16 00:36:10;;;;;;;10.73;4.32;;;15.90;99.90;;;;;;5014277;28;20069;-70
2022/05/16 00:38:35;;;;;;;12.98;4.68;;;15.90;99.90;;;;;;5012006;28;20487;-70
2022/05/16 00:41:02;;;;;;;10.27;5.38;;;15.90;99.90;;;;;;5016221;28;20116;-67
2022/05/16 00:43:44;;;;;;;11.75;5.00;;;15.90;99.90;;;;;;4998656;28;20019;-71
2022/05/16 00:46:11;;;;;;;8.88;4.60;;;15.80;99.90;;;;;;4998253;28;20038;-65
2022/05/16 00:48:37;;;;;;;9.55;4.65;;;15.80;99.90;;;;;;4993336;28;20371;-71
2022/05/16 00:51:04;;;;;;;12.30;4.53;;;15.80;99.90;;;;;;4992861;28;20056;-68
2022/05/16 00:53:30;;;;;;;15.32;5.00;;;15.80;99.90;;;;;;4997999;28;20018;-69
2022/05/16 00:55:57;;;;;;;9.60;4.75;;;15.80;99.90;;;;;;4993812;28;20026;-66
2022/05/16 00:58:24;;;;;;;7.80;4.43;;;15.70;99.90;;;;;;4993756;28;20475;-66
2022/05/16 01:00:51;;;;;;;10.35;5.53;;;15.70;99.90;;;;;;4993740;28;20022;-67
2022/05/16 01:06:05;;;;;;;10.82;4.60;;;15.70;99.90;;;;;;4993364;28;20033;-64
2022/05/16 01:08:33;;;;;;;7.82;3.92;;;15.60;99.90;;;;;;4993258;28;20026;-64
2022/05/16 01:11:05;;;;;;;10.75;4.80;;;15.60;99.90;;;;;;4993246;28;20038;-66
2022/05/16 01:13:31;;;;;;;9.60;4.78;;;15.60;99.90;;;;;;4995965;28;20117;-64
2022/05/16 01:15:59;;;;;;;10.45;4.47;;;15.60;99.90;;;;;;4999240;28;20042;-69
2022/05/16 01:18:26;;;;;;;8.63;4.22;;;15.50;99.90;;;;;;4993260;28;20424;-68
2022/05/16 01:21:17;;;;;;;9.30;4.30;;;15.40;99.90;;;;;;4993289;28;20039;-69
2022/05/16 01:23:57;;;;;;;11.65;4.38;;;15.40;99.90;;;;;;4992918;28;20045;-64
2022/05/16 01:26:27;;;;;;;8.82;4.80;;;15.30;99.90;;;;;;4993508;28;20084;-65
2022/05/16 01:28:54;;;;;;;13.10;4.78;;;15.30;99.90;;;;;;4993861;28;20500;-69
2022/05/16 01:31:20;;;;;;;9.00;4.72;;;15.30;99.90;;;;;;4993054;28;20035;-68
2022/05/16 01:33:46;;;;;;;11.80;4.53;;;15.30;99.90;;;;;;4996392;28;20022;-71
2022/05/16 01:36:12;;;;;;;9.32;4.95;;;15.20;99.90;;;;;;4996790;28;20031;-70
2022/05/16 01:38:39;;;;;;;11.55;4.93;;;15.20;99.90;;;;;;4997701;28;20024;-65
2022/05/16 01:41:08;;;;;;;9.52;4.82;;;15.20;99.90;;;;;;4997031;28;20099;-68
2022/05/16 01:43:41;;;;;;;11.48;5.05;;;15.20;99.90;;;;;;4992745;28;20019;-65
2022/05/16 01:46:09;;;;;;;10.02;4.65;;;15.20;99.90;;;;;;4994156;28;20045;-68
2022/05/16 01:48:35;;;;;;;8.10;4.88;;;15.20;99.90;;;;;;4992375;28;20034;-71
2022/05/16 01:51:05;;;;;;;11.60;5.13;;;15.10;99.90;;;;;;4992781;28;20500;-71
2022/05/16 01:53:31;;;;;;;11.02;5.50;;;15.00;99.90;;;;;;4992521;28;20054;-71
2022/05/16 01:55:57;;;;;;;6.28;4.53;;;15.00;99.90;;;;;;4996295;28;20029;-67
2022/05/16 01:58:23;;;;;;;11.60;5.00;;;14.90;99.90;;;;;;5005655;28;20026;-68
2022/05/16 02:00:49;;;;;;;10.55;4.68;;;14.90;99.90;;;;;;5010271;28;20021;-72
2022/05/16 02:03:16;;;;;;;11.55;4.65;;;14.80;99.90;;;;;;5011299;28;20021;-71
2022/05/16 02:05:44;;;;;;;10.88;5.32;;;14.80;99.90;;;;;;5011178;28;20045;-69
2022/05/16 02:08:11;;;;;;;10.93;5.43;;;14.70;99.90;;;;;;5011024;28;20034;-69
2022/05/16 02:10:37;;;;;;;7.82;4.78;;;14.70;99.90;;;;;;5010266;28;20052;-71
2022/05/16 02:13:04;;;;;;;11.48;5.50;;;14.70;99.90;;;;;;5010603;28;20538;-65
2022/05/16 02:15:33;;;;;;;10.40;5.28;;;14.70;99.90;;;;;;5011178;28;20484;-71
2022/05/16 02:17:59;;;;;;;8.32;5.43;;;14.80;99.90;;;;;;5013287;28;20030;-71
2022/05/16 02:20:26;;;;;;;8.77;4.82;;;14.80;99.90;;;;;;5009707;28;20030;-70
2022/05/16 02:25:44;;;;;;;8.88;4.68;;;14.70;99.90;;;;;;5012081;28;20053;-71
2022/05/16 02:28:12;;;;;;;11.10;4.63;;;14.60;99.90;;;;;;5009151;28;20029;-67
2022/05/16 02:30:38;;;;;;;12.38;5.65;;;14.60;99.90;;;;;;5011415;28;20104;-71
2022/05/16 02:33:04;;;;;;;8.38;5.53;;;14.60;99.90;;;;;;5010892;28;20029;-67
2022/05/16 02:35:31;;;;;;;9.02;4.93;;;14.50;99.90;;;;;;4993987;28;20416;-70
2022/05/16 02:37:59;;;;;;;16.83;5.68;;;14.50;99.90;;;;;;5021771;28;20118;-64
2022/05/16 02:40:27;;;;;;;8.48;4.40;;;14.50;99.90;;;;;;5026694;28;20450;-70
2022/05/16 02:42:53;;;;;;;10.68;5.65;;;14.50;99.90;;;;;;5015534;28;20530;-70
2022/05/16 02:45:20;;;;;;;11.10;5.35;;;14.40;99.90;;;;;;5011168;28;20030;-70
2022/05/16 02:47:46;;;;;;;11.25;6.05;;;14.40;99.90;;;;;;5011577;28;20121;-69
2022/05/16 02:50:12;;;;;;;7.72;5.47;;;14.40;99.90;;;;;;5010605;28;20133;-67
2022/05/16 02:52:38;;;;;;;10.88;5.35;;;14.40;99.90;;;;;;5012290;28;20076;-66
2022/05/16 02:55:06;;;;;;;9.60;5.47;;;14.40;99.90;;;;;;5007217;28;20022;-71
2022/05/16 02:57:32;;;;;;;11.98;6.40;;;14.30;99.90;;;;;;4990994;28;20034;-70
2022/05/16 02:59:58;;;;;;;11.07;5.63;;;14.30;99.90;;;;;;4994353;28;20022;-68
2022/05/16 03:02:25;;;;;;;11.23;5.55;;;14.30;99.90;;;;;;5019147;28;20094;-70
2022/05/16 03:04:52;;;;;;;10.18;5.68;;;14.30;99.90;;;;;;5010778;28;20042;-71
2022/05/16 03:07:19;;;;;;;9.75;5.18;;;14.30;99.90;;;;;;5011062;28;20100;-71
2022/05/16 03:09:46;;;;;;;11.45;5.47;;;14.30;99.90;;;;;;5011116;28;20034;-70
2022/05/16 03:12:13;;;;;;;10.73;5.47;;;14.30;99.90;;;;;;5008436;28;20068;-69
2022/05/16 03:14:40;;;;;;;9.45;5.85;;;14.30;99.90;;;;;;4999443;28;20045;-70
2022/05/16 03:17:06;;;;;;;13.43;5.78;;;14.20;99.90;;;;;;4994043;28;20145;-70
2022/05/16 03:19:35;;;;;;;11.25;5.43;;;14.30;99.90;;;;;;4992135;28;20019;-70
2022/05/16 03:22:02;;;;;;;9.65;5.43;;;14.30;99.90;;;;;;4990156;28;20057;-69
2022/05/16 03:24:28;;;;;;;14.73;5.22;;;14.30;99.90;;;;;;4989670;28;20022;-68
2022/05/16 03:26:53;;;;;;;9.32;5.43;;;14.30;99.90;;;;;;4989755;28;20030;-71
2022/05/16 03:29:19;;;;;;;8.05;5.13;;;14.30;99.90;;;;;;4989515;28;20137;-69
2022/05/16 03:31:46;;;;;;;8.57;4.90;;;14.40;99.90;;;;;;4990249;28;20107;-71
2022/05/16 03:34:12;;;;;;;12.30;5.95;;;14.60;99.90;;;;;;4990033;28;20022;-68
2022/05/16 03:36:39;;;;;;;10.27;5.55;;;15.10;99.90;;;;;;4991740;28;20026;-68
2022/05/16 03:41:51;;;;;;;13.55;5.47;;;16.10;99.90;;;;;;4993389;28;20496;-68
2022/05/16 03:44:18;;;;;;;9.10;5.72;;;16.80;99.90;;;;;;4994390;28;20046;-71
2022/05/16 03:46:44;;;;;;;14.30;6.18;;;17.40;99.90;;;;;;4992854;28;20046;-69
2022/05/16 03:49:10;;;;;;;9.68;5.57;;;18.20;99.90;;;;;;4993127;28;20080;-69
2022/05/16 03:51:37;;;;;;;14.90;6.07;;;18.60;99.90;;;;;;4992846;28;20037;-71
2022/05/16 03:54:04;;;;;;;11.90;5.38;;;18.90;99.30;;;;;;4993804;28;20029;-67
2022/05/16 03:56:30;;;;;;;26.05;6.13;;;19.40;98.70;;;;;;4997779;28;20030;-69
2022/05/16 03:58:57;;;;;;;8.32;5.55;;;20.10;96.50;;;;;;4992708;28;20021;-71
2022/05/16 04:01:24;;;;;;;9.48;5.35;;;20.50;94.50;;;;;;4992644;28;20023;-71
2022/05/16 04:03:51;;;;;;;8.68;5.15;;;20.90;92.70;;;;;;4992432;28;20061;-70
2022/05/16 04:06:18;;;;;;;17.55;6.47;;;21.50;90.70;;;;;;4992718;28;20495;-72
2022/05/16 04:08:45;;;;;;;13.10;6.13;;;21.80;89.70;;;;;;4992516;28;20117;-71
2022/05/16 04:11:14;;;;;;;13.57;6.20;;;21.80;87.90;;;;;;4992610;28;20480;-73
2022/05/16 04:13:41;;;;;;;13.05;6.00;;;22.20;85.50;;;;;;4991370;28;20019;-69
2022/05/16 04:16:07;;;;;;;14.68;6.25;;;22.70;83.50;;;;;;4992315;28;20389;-72
2022/05/16 04:18:33;;;;;;;12.23;5.82;;;23.00;83.10;;;;;;4992553;28;20030;-72
2022/05/16 04:21:00;;;;;;;13.45;5.93;;;23.20;81.80;;;;;;4992467;28;20037;-71
2022/05/16 04:23:26;;;;;;;11.52;6.95;;;23.80;79.00;;;;;;4997108;28;20019;-72
2022/05/16 04:25:52;;;;;;;10.38;5.53;;;24.10;78.10;;;;;;4994689;28;20049;-73
2022/05/16 04:28:18;;;;;;;12.07;6.15;;;24.50;75.90;;;;;;4992683;28;20014;-73
2022/05/16 04:30:44;;;;;;;9.93;6.50;;;25.10;74.70;;;;;;4992405;28;20046;-71
2022/05/16 04:33:10;;;;;;;12.05;7.40;;;25.50;73.40;;;;;;4998260;28;20029;-73
2022/05/16 04:35:36;;;;;;;9.57;6.47;;;25.70;72.40;;;;;;4993407;28;20112;-71
2022/05/16 04:38:04;;;;;;;11.68;5.78;;;25.40;72.00;;;;;;4996835;28;20037;-73
2022/05/16 04:40:33;;;;;;;13.60;7.07;;;25.50;70.10;;;;;;4989756;28;20038;-69
2022/05/16 04:43:00;;;;;;;14.88;6.95;;;26.10;71.50;;;;;;5006176;28;20034;-73
2022/05/16 04:45:30;;;;;;;16.30;5.60;;;26.60;69.20;;;;;;5003969;28;20398;-73
2022/05/16 04:48:06;;;;;;;17.30;6.55;;;27.00;66.40;;;;;;5004346;28;20502;-73
2022/05/16 04:50:35;;;;;;;12.18;5.60;;;27.30;67.20;;;;;;5021999;28;20129;-71
2022/05/16 04:53:04;;;;;;;11.10;5.18;;;27.20;65.30;;;;;;5003396;28;20459;-71
2022/05/16 04:55:31;;;;;;;14.88;6.55;;;27.30;65.90;;;;;;5013930;28;20542;-72
2022/05/16 04:57:59;;;;;;;11.10;5.80;;;26.60;65.60;;;;;;5005051;28;20033;-72
2022/05/16 05:00:27;;;;;;;9.25;5.40;;;25.20;66.90;;;;;;4995481;28;20018;-73
2022/05/16 05:02:53;;;;;;;10.75;5.68;;;24.50;67.40;;;;;;4992594;28;20104;-71
2022/05/16 05:05:19;;;;;;;13.77;5.47;;;24.10;68.00;;;;;;4992922;28;20027;-71
2022/05/16 05:07:47;;;;;;;10.63;5.00;;;23.80;69.60;;;;;;4998615;28;20054;-70
2022/05/16 05:15:47;;;;;;;11.20;4.80;;;22.90;70.30;;;;;;4983977;28;20038;-67
2022/05/16 05:18:14;;;;;;;10.13;5.47;;;22.60;72.00;;;;;;5006717;28;19994;-72
2022/05/16 05:20:40;;;;;;;10.95;5.72;;;22.60;73.80;;;;;;5004163;28;20447;-72
2022/05/16 05:23:08;;;;;;;9.55;5.47;;;22.50;73.70;;;;;;4993530;28;20014;-72
2022/05/16 05:25:37;;;;;;;11.25;5.55;;;22.40;73.90;;;;;;5018423;28;20496;-71
2022/05/16 05:28:06;;;;;;;15.35;4.30;;;22.30;75.80;;;;;;5002194;28;20069;-72
2022/05/16 05:30:34;;;;;;;11.02;5.70;;;22.20;76.70;;;;;;5019137;28;20430;-72
2022/05/16 05:33:01;;;;;;;10.57;5.30;;;22.10;74.90;;;;;;4995694;28;20037;-72
2022/05/16 05:35:29;;;;;;;13.43;5.38;;;22.20;76.70;;;;;;5000497;28;20023;-71
2022/05/16 05:37:56;;;;;;;12.50;5.72;;;22.50;76.90;;;;;;5012909;28;20022;-72
2022/05/16 05:40:23;;;;;;;13.32;5.18;;;22.40;75.70;;;;;;4992413;28;20041;-72
2022/05/16 05:42:50;;;;;;;11.88;5.78;;;22.50;78.00;;;;;;4991760;28;20046;-72
2022/05/16 05:45:16;;;;;;;9.48;5.35;;;22.50;76.90;;;;;;4991570;28;20120;-72
2022/05/16 05:47:42;;;;;;;26.85;5.93;;;22.50;75.90;;;;;;4991740;28;20519;-70
2022/05/16 05:50:09;;;;;;;9.63;5.20;;;22.50;78.20;;;;;;4991776;28;20038;-71
2022/05/16 05:52:35;;;;;;;14.13;7.03;;;22.60;76.80;;;;;;4991767;28;20022;-68
2022/05/16 05:55:02;;;;;;;14.23;5.75;;;22.80;76.80;;;;;;4991720;28;20025;-72
2022/05/16 05:57:27;;;;;;;13.60;6.07;;;22.80;77.50;;;;;;4991645;28;20014;-71
2022/05/16 05:59:55;;;;;;;12.85;5.82;;;22.90;75.80;;;;;;4990880;28;20036;-73
2022/05/16 06:02:21;;;;;;;17.38;6.00;;;23.00;75.40;;;;;;4991171;28;20478;-72
2022/05/16 06:04:47;;;;;;;14.32;5.75;;;23.20;75.60;;;;;;4991794;28;20493;-72
2022/05/16 06:07:13;;;;;;;11.10;5.20;;;23.40;73.90;;;;;;4991669;28;20069;-72
2022/05/16 06:09:39;;;;;;;12.82;6.07;;;23.60;74.10;;;;;;4991346;28;20034;-72
2022/05/16 06:12:07;;;;;;;9.90;5.20;;;23.70;75.30;;;;;;5005841;28;20041;-72
2022/05/16 06:14:37;;;;;;;14.30;6.38;;;23.90;73.40;;;;;;5002932;28;20956;-71
2022/05/16 06:17:10;;;;;;;17.65;5.18;;;24.00;73.80;;;;;;5019229;28;20041;-72
2022/05/16 06:19:39;;;;;;;10.38;5.05;;;24.00;73.90;;;;;;5001908;28;20022;-73
2022/05/16 06:22:05;;;;;;;13.00;5.35;;;24.00;75.90;;;;;;4993621;28;20526;-71
2022/05/16 06:27:17;;;;;;;10.73;5.07;;;24.50;73.90;;;;;;4991438;28;20038;-69
2022/05/16 06:29:43;;;;;;;11.50;5.30;;;24.40;74.80;;;;;;4993296;28;20077;-73
2022/05/16 06:32:09;;;;;;;12.00;5.22;;;24.40;74.40;;;;;;4991025;28;20046;-69
2022/05/16 06:34:34;;;;;;;13.75;6.00;;;24.60;72.50;;;;;;4994153;28;20316;-70
2022/05/16 06:37:00;;;;;;;13.32;4.85;;;24.70;72.90;;;;;;4992322;28;20110;-72
2022/05/16 06:39:26;;;;;;;9.85;5.00;;;25.00;74.50;;;;;;4992506;28;20393;-72
2022/05/16 06:41:54;;;;;;;10.13;5.43;;;25.20;73.00;;;;;;5007726;28;20064;-72
2022/05/16 06:44:24;;;;;;;14.32;6.10;;;25.10;74.30;;;;;;5000409;28;20495;-71
2022/05/16 06:46:55;;;;;;;16.58;5.30;;;25.20;72.60;;;;;;5022815;28;20062;-72
2022/05/16 06:49:27;;;;;;;9.43;5.07;;;25.20;73.70;;;;;;5010782;28;20037;-72
2022/05/16 06:51:54;;;;;;;13.60;5.18;;;24.80;71.80;;;;;;5026502;28;20042;-71
2022/05/16 06:54:20;;;;;;;12.55;5.72;;;24.70;74.00;;;;;;5011365;28;20081;-69
2022/05/16 06:56:46;;;;;;;14.02;4.30;;;25.00;73.80;;;;;;5011965;28;20030;-69
2022/05/16 06:59:11;;;;;;;13.70;5.10;;;24.90;71.70;;;;;;5012101;28;20050;-70
2022/05/16 07:01:37;;;;;;;8.57;4.45;;;24.90;71.80;;;;;;5011413;28;20452;-72
2022/05/16 07:04:04;;;;;;;13.90;5.45;;;25.00;70.90;;;;;;5011673;28;20056;-72
2022/05/16 07:06:30;;;;;;;11.68;5.00;;;24.70;72.20;;;;;;5010800;28;20064;-73
2022/05/16 07:08:56;;;;;;;11.20;4.93;;;24.90;70.90;;;;;;5010477;28;20077;-72
2022/05/16 07:11:22;;;;;;;10.68;5.10;;;25.20;72.40;;;;;;5012585;28;20045;-72
2022/05/16 07:13:48;;;;;;;13.88;5.32;;;25.20;72.30;;;;;;5015225;28;20472;-72
2022/05/16 07:16:14;;;;;;;15.27;5.70;;;25.40;71.40;;;;;;5014365;28;20422;-72
2022/05/16 07:18:40;;;;;;;13.63;4.93;;;25.40;71.00;;;;;;5015202;28;20025;-69
2022/05/16 07:21:07;;;;;;;9.63;5.00;;;25.60;70.90;;;;;;5012597;28;20383;-69
2022/05/16 07:23:33;;;;;;;9.38;4.65;;;26.00;71.80;;;;;;5012800;28;20477;-71
2022/05/16 07:28:44;;;;;;;9.75;4.55;;;26.40;69.80;;;;;;5013494;28;20034;-71
2022/05/16 07:31:10;;;;;;;15.90;4.28;;;26.90;69.50;;;;;;5014456;28;20555;-72
2022/05/16 07:33:36;;;;;;;7.80;4.40;;;26.90;67.40;;;;;;5015058;28;20038;-72
2022/05/16 07:36:03;;;;;;;7.38;4.50;;;26.80;66.80;;;;;;5014941;28;20033;-72
2022/05/16 07:38:29;;;;;;;12.50;5.38;;;26.70;65.50;;;;;;5014589;28;20026;-72
2022/05/16 07:40:56;;;;;;;7.70;4.20;;;27.00;65.90;;;;;;5014836;28;20041;-72
2022/05/16 07:43:24;;;;;;;17.35;5.60;;;27.10;66.10;;;;;;5015045;28;20065;-71
2022/05/16 07:45:50;;;;;;;12.25;5.25;;;27.30;66.00;;;;;;5014949;28;20170;-72
2022/05/16 07:48:16;;;;;;;9.00;4.03;;;27.70;68.10;;;;;;5015043;28;20093;-70
2022/05/16 07:50:44;;;;;;;11.40;5.40;;;27.80;66.00;;;;;;5014829;28;20066;-71
2022/05/16 07:53:11;;;;;;;11.07;5.28;;;28.10;68.60;;;;;;5022328;28;20036;-69
2022/05/16 07:55:46;;;;;;;18.33;7.55;;;28.10;66.60;;;;;;5018320;28;20017;-69
2022/05/16 07:58:12;;;;;;;18.02;7.18;;;27.40;68.80;;;;;;5028613;28;20101;-71
2022/05/16 08:00:39;;;;;;;14.82;6.90;;;27.70;69.80;;;;;;5034358;28;20033;-72
2022/05/16 08:03:08;;;;;;;16.50;7.22;;;27.40;70.00;;;;;;5034175;28;20022;-68
2022/05/16 08:05:34;;;;;;;21.55;7.88;;;27.50;66.90;;;;;;5034154;28;20476;-70
2022/05/16 08:10:48;;;;;;;14.85;6.95;;;27.40;67.60;;;;;;5034164;28;20041;-72
2022/05/16 08:13:16;;;;;;;14.65;6.22;;;27.50;68.40;;;;;;5025237;28;20033;-73
2022/05/16 08:15:44;;;;;;;14.68;6.43;;;27.60;68.30;;;;;;5038540;28;20083;-71
2022/05/16 08:18:12;;;;;;;17.27;7.13;;;27.20;66.90;;;;;;5027167;28;20025;-73
2022/05/16 08:20:43;;;;;;;17.15;6.13;;;27.30;67.70;;;;;;5043597;28;20037;-72
2022/05/16 08:23:10;;;;;;;12.27;5.90;;;27.50;67.00;;;;;;5034165;28;20022;-72
2022/05/16 08:25:37;;;;;;;12.93;5.63;;;27.70;67.30;;;;;;5034158;28;20025;-72
2022/05/16 08:28:03;;;;;;;18.73;7.28;;;27.70;66.40;;;;;;5023216;28;20054;-72
2022/05/16 08:30:28;;;;;;;12.13;4.75;;;27.80;65.30;;;;;;5014056;28;20062;-72
2022/05/16 08:32:57;;;;;;;12.02;5.32;;;27.70;64.70;;;;;;5014387;28;20388;-71
2022/05/16 08:35:23;;;;;;;13.65;5.15;;;28.10;64.80;;;;;;5014138;28;20034;-72
2022/05/16 08:40:54;;;;;;;11.70;3.30;;;28.80;65.70;;;;;;5013965;28;20033;-72
2022/05/16 08:43:26;;;;;;;11.10;4.20;;;29.20;62.90;;;;;;4980551;28;20074;-72
2022/05/16 08:46:02;;;;;;;7.82;3.80;;;29.40;63.90;;;;;;4968578;28;20066;-68
2022/05/16 08:48:37;;;;;;;5.18;2.92;;;29.60;61.10;;;;;;4978777;28;20428;-71
2022/05/16 08:51:11;;;;;;;15.35;3.78;;;29.80;62.20;;;;;;4975668;28;20890;-72
2022/05/16 08:53:45;;;;;;;9.10;3.13;;;29.50;57.10;;;;;;4953185;29;20397;-72
2022/05/16 08:56:19;;;;;;;9.25;3.65;;;29.70;59.20;;;;;;4953350;29;20171;-69
2022/05/16 08:58:51;;;;;;;7.68;3.42;;;29.70;59.40;;;;;;4953372;29;20023;-72
2022/05/16 09:01:32;;;;;;;;;;;29.60;56.70;;;;;;4970846;28;20089;-72
2022/05/16 09:04:12;;;;;;;7.82;2.63;;;29.70;57.70;;;;;;4972178;28;19917;-72
2022/05/16 09:07:02;;;;;;;4.22;2.28;;;30.00;58.50;;;;;;4972376;28;20084;-71
2022/05/16 09:09:39;;;;;;;6.25;2.58;;;29.90;56.50;;;;;;4969324;28;20170;-70
2022/05/16 09:12:37;;;;;;;5.28;2.13;;;29.60;57.30;;;;;;4968123;28;20039;-71
2022/05/16 09:15:35;;;;;;;20.20;3.25;;;29.70;58.80;;;;;;4914008;28;20084;-71
2022/05/16 09:18:24;;;;;;;7.00;2.50;;;30.00;58.40;;;;;;4914533;29;20047;-71
2022/05/16 09:20:53;;;;;;;4.72;2.42;;;29.50;56.10;;;;;;4914575;29;20040;-72
2022/05/16 09:23:29;;;;;;;3.08;2.55;;;28.90;55.20;;;;;;4914792;29;20031;-71
2022/05/16 09:26:03;;;;;;;5.78;2.33;;;29.20;58.30;;;;;;4931909;29;20136;-71
2022/05/16 09:28:34;;;;;;;6.72;2.15;;;29.60;59.60;;;;;;4932598;29;20034;-70
2022/05/16 09:31:30;;;;;;;9.63;2.50;;;29.90;57.50;;;;;;4933383;29;20130;-71
2022/05/16 09:33:59;;;;;;;5.57;2.65;;;29.70;59.40;;;;;;4932880;29;20074;-72
2022/05/16 09:36:36;;;;;;;11.73;2.83;;;29.80;57.10;;;;;;4932761;29;20122;-73
2022/05/16 09:39:04;;;;;;;7.28;2.67;;;30.00;56.80;;;;;;4932629;29;20046;-71
2022/05/16 09:41:42;;;;;;;7.28;2.22;;;30.10;58.30;;;;;;4932678;29;20042;-72
2022/05/16 09:44:48;;;;;;;4.45;2.45;;;30.20;58.60;;;;;;4933551;29;20528;-72
2022/05/16 09:47:37;;;;;;;7.53;2.70;;;30.40;57.70;;;;;;4910038;29;20055;-71
2022/05/16 09:50:02;;;;;;;7.05;2.85;;;30.20;57.50;;;;;;4921276;29;20078;-70
2022/05/16 09:52:35;;;;;;;7.72;2.60;;;30.10;56.00;;;;;;4932959;29;20073;-72
2022/05/16 09:55:10;;;;;;;3.75;2.15;;;29.90;57.10;;;;;;4932832;29;20086;-71
2022/05/16 09:57:54;;;;;;;4.43;1.92;;;30.10;57.10;;;;;;4932241;29;20034;-72
2022/05/16 10:00:40;;;;;;;5.55;2.40;;;30.00;56.10;;;;;;4932474;29;20027;-71
2022/05/16 10:03:24;;;;;;;7.68;2.30;;;30.20;56.60;;;;;;4932786;29;20513;-72
2022/05/16 10:05:52;;;;;;;5.15;2.05;;;30.10;53.70;;;;;;4938570;29;20043;-71
2022/05/16 10:08:37;;;;;;;5.07;2.17;;;29.50;52.10;;;;;;4952324;29;20359;-71
2022/05/16 10:11:27;;;;;;;4.22;2.17;;;29.90;53.90;;;;;;4945987;29;20055;-72
2022/05/16 10:13:54;;;;;;;5.28;2.42;;;30.00;57.60;;;;;;4951862;28;20043;-72
2022/05/16 10:16:22;;;;;;;6.00;2.58;;;30.20;57.00;;;;;;4941829;29;20059;-72
2022/05/16 10:18:52;;;;;;;4.07;2.00;;;30.20;55.70;;;;;;4980833;28;20046;-70
2022/05/16 10:21:24;;;;;;;6.13;2.05;;;29.70;55.10;;;;;;4990456;28;20463;-69
2022/05/16 10:23:51;;;;;;;5.75;2.63;;;29.50;55.20;;;;;;4992457;28;20482;-71
2022/05/16 10:26:25;;;;;;;4.35;2.20;;;28.90;54.20;;;;;;4992160;28;20026;-71
2022/05/16 10:29:00;;;;;;;4.60;2.65;;;29.10;54.20;;;;;;4984166;28;20155;-70
2022/05/16 10:35:03;;;;;;;4.82;2.28;;;29.60;57.10;;;;;;4991935;28;20026;-72
2022/05/16 10:37:35;;;;;;;3.15;2.13;;;29.80;57.30;;;;;;4991466;28;20043;-72
2022/05/16 10:40:09;;;;;;;4.72;2.20;;;30.00;56.30;;;;;;4992349;28;20030;-69
2022/05/16 10:43:02;;;;;;;5.07;2.40;;;30.10;56.40;;;;;;4992077;28;20034;-70
2022/05/16 10:45:31;;;;;;;5.22;2.63;;;30.00;55.40;;;;;;4992944;28;20034;-72
2022/05/16 10:47:57;;;;;;;4.22;2.30;;;29.40;52.80;;;;;;5012150;28;20157;-69
2022/05/16 10:50:34;;;;;;;7.03;2.00;;;29.40;53.20;;;;;;5015924;28;20124;-72
2022/05/16 10:53:10;;;;;;;4.72;2.50;;;29.10;55.00;;;;;;5015711;28;20022;-71
2022/05/16 10:55:57;;;;;;;5.90;2.25;;;28.90;54.80;;;;;;5015674;28;20041;-73
2022/05/16 10:58:42;;;;;;;4.82;2.42;;;29.10;54.50;;;;;;5015762;28;20022;-72
2022/05/16 11:01:12;;;;;;;3.75;2.22;;;29.30;56.20;;;;;;5016058;28;20113;-71
2022/05/16 11:03:44;;;;;;;5.53;2.53;;;29.10;57.30;;;;;;5015808;28;20033;-72
2022/05/16 11:06:31;;;;;;;5.28;2.22;;;29.10;55.90;;;;;;5015128;28;20029;-70
2022/05/16 11:08:57;;;;;;;3.95;2.10;;;29.00;55.40;;;;;;5015800;28;20117;-72
2022/05/16 11:11:56;;;;;;;5.40;2.97;;;28.90;55.10;;;;;;5015986;28;20118;-72
2022/05/16 11:14:51;;;;;;;4.65;2.50;;;28.90;54.80;;;;;;5015312;28;20591;-71
2022/05/16 11:17:39;;;;;;;6.20;2.25;;;29.10;55.20;;;;;;5015288;28;20065;-71
2022/05/16 11:20:38;;;;;;;8.80;2.63;;;29.00;55.20;;;;;;5014761;28;20030;-72
2022/05/16 11:23:34;;;;;;;6.38;3.10;;;29.20;56.70;;;;;;5015323;28;20476;-68
2022/05/16 11:26:16;;;;;;;4.53;2.40;;;29.10;55.10;;;;;;5015690;28;20030;-71
2022/05/16 11:29:17;;;;;;;8.07;2.67;;;29.10;56.00;;;;;;5015023;28;20057;-71
2022/05/16 11:32:06;;;;;;;7.60;2.65;;;28.90;54.90;;;;;;5015730;28;20045;-71
2022/05/16 11:34:41;;;;;;;10.75;3.13;;;28.70;54.50;;;;;;5015469;28;20038;-70
2022/05/16 11:37:25;;;;;;;6.95;2.17;;;29.00;56.10;;;;;;5014954;28;20041;-72
2022/05/16 11:40:06;;;;;;;3.30;2.10;;;29.10;55.60;;;;;;5014160;28;20018;-71
2022/05/16 11:42:42;;;;;;;;;;;28.90;54.90;;;;;;5015522;28;20134;-71
2022/05/16 11:45:20;;;;;;;5.05;2.47;;;28.90;56.10;;;;;;5014900;28;19956;-71
2022/05/16 11:48:15;;;;;;;7.03;2.55;;;29.10;54.80;;;;;;5013644;28;20095;-72
2022/05/16 11:50:54;;;;;;;6.97;2.75;;;29.00;55.00;;;;;;5014765;28;20069;-70
2022/05/16 11:53:39;;;;;;;11.40;3.40;;;29.10;55.60;;;;;;5018777;28;20041;-71
2022/05/16 12:01:44;;;;;;;7.53;3.03;;;29.50;57.90;;;;;;4957713;28;20525;-69
2022/05/16 12:04:13;;;;;;;3.85;2.33;;;29.50;56.40;;;;;;4953571;29;20034;-71
2022/05/16 12:06:51;;;;;;;6.07;2.67;;;29.30;55.20;;;;;;4961530;28;20461;-71
2022/05/16 12:09:16;;;;;;;4.47;2.80;;;29.20;55.10;;;;;;4972989;28;20437;-72
2022/05/16 12:12:04;;;;;;;6.32;2.70;;;29.00;54.50;;;;;;4970023;28;20051;-68
2022/05/16 12:14:34;;;;;;;5.97;3.10;;;29.30;54.20;;;;;;4953407;29;20066;-67
2022/05/16 12:17:18;;;;;;;6.13;2.80;;;29.30;55.60;;;;;;4966895;28;20031;-71
2022/05/16 12:19:52;;;;;;;2.92;2.38;;;29.30;55.40;;;;;;4965843;28;20035;-71
2022/05/16 12:22:34;;;;;;;8.63;3.33;;;29.20;54.70;;;;;;4966719;28;20035;-68
2022/05/16 12:25:12;;;;;;;4.95;3.28;;;29.30;55.00;;;;;;4944839;28;20188;-68
2022/05/16 12:27:45;;;;;;;4.80;2.78;;;29.20;53.80;;;;;;4958976;28;20031;-70
2022/05/16 12:30:13;;;;;;;6.10;3.28;;;28.90;53.80;;;;;;4963693;28;20038;-71
2022/05/16 12:32:43;;;;;;;7.57;3.63;;;29.20;55.40;;;;;;4963767;28;20385;-68
2022/05/16 12:35:11;;;;;;;7.28;2.80;;;29.30;55.90;;;;;;4973188;28;20085;-70
2022/05/16 12:37:40;;;;;;;4.78;3.42;;;29.40;55.90;;;;;;4960102;28;20035;-70
2022/05/16 12:40:28;;;;;;;4.55;3.15;;;29.70;57.90;;;;;;5014570;28;20029;-71
2022/05/16 12:43:17;;;;;;;4.93;2.67;;;29.70;54.50;;;;;;5033066;28;20029;-71
2022/05/16 12:45:54;;;;;;;7.00;3.50;;;29.80;56.60;;;;;;5033510;28;20053;-71
2022/05/16 12:48:47;;;;;;;9.98;3.72;;;29.60;53.80;;;;;;5028972;28;20033;-72
2022/05/16 12:51:32;;;;;;;5.95;3.13;;;29.50;55.00;;;;;;5018312;28;20124;-71
2022/05/16 12:54:04;;;;;;;11.25;3.38;;;29.60;55.70;;;;;;4994324;28;20027;-68
2022/05/16 12:56:48;;;;;;;7.05;3.30;;;29.60;54.80;;;;;;5004779;28;20057;-71
2022/05/16 12:59:33;;;;;;;5.10;3.60;;;29.60;55.10;;;;;;5019933;28;20049;-69
2022/05/16 13:02:17;;;;;;;5.43;3.70;;;29.30;55.20;;;;;;5018533;28;20033;-69
2022/05/16 13:05:16;;;;;;;6.97;3.15;;;29.20;55.60;;;;;;5025747;28;20063;-67
2022/05/16 13:08:03;;;;;;;5.63;3.30;;;29.20;55.00;;;;;;4994941;28;20031;-71
2022/05/16 13:11:01;;;;;;;8.88;4.10;;;29.10;54.90;;;;;;4992683;28;20054;-70
2022/05/16 13:13:48;;;;;;;5.47;3.50;;;29.20;55.40;;;;;;5013027;28;20056;-70
2022/05/16 13:16:30;;;;;;;7.32;3.83;;;29.20;55.10;;;;;;5027745;28;20500;-71
2022/05/16 13:18:58;;;;;;;;;;;29.40;56.80;;;;;;5014570;28;20029;-73
2022/05/16 13:21:38;;;;;;;6.30;3.55;;;29.30;55.20;;;;;;5032781;28;20063;-68
2022/05/16 13:24:09;;;;;;;4.68;3.15;;;29.30;53.80;;;;;;5032606;28;20079;-71
2022/05/16 13:29:22;;;;;;;8.77;6.50;;;29.30;55.80;;;;;;5000743;28;20034;-72
2022/05/16 13:31:54;;;;;;;13.63;5.82;;;29.10;54.70;;;;;;4991919;28;20481;-70
2022/05/16 13:34:35;;;;;;;11.32;5.85;;;28.90;54.80;;;;;;5010114;28;20030;-71
2022/05/16 13:37:06;;;;;;;7.82;3.67;;;29.10;55.90;;;;;;5013012;28;20511;-64
2022/05/16 13:39:43;;;;;;;10.52;4.07;;;29.00;54.30;;;;;;5013020;28;20117;-72
2022/05/16 13:42:10;;;;;;;6.57;3.65;;;29.20;56.30;;;;;;5013673;28;20029;-66